sensor_id;sensor_type;location;lat;lon;timestamp;P1;durP1;ratioP1;P2;durP2;ratioP2
64208;SDS011;50527;52.414;13.226;2023-02-13T00:00:06;13.25;;;3.78;;
64208;SDS011;50527;52.414;13.226;2023-02-13T00:02:33;12.70;;;4.32;;
64208;SDS011;50527;52.414;13.226;2023-02-13T00:04:59;10.63;;;3.65;;
64208;SDS011;50527;52.414;13.226;2023-02-13T00:07:24;11.75;;;3.80;;
64208;SDS011;50527;52.414;13.226;2023-02-13T00:09:50;10.25;;;3.97;;
64208;SDS011;50527;52.414;13.226;2023-02-13T00:12:15;16.70;;;5.65;;
64208;SDS011;50527;52.414;13.226;2023-02-13T00:14:41;9.70;;;3.50;;
64208;SDS011;50527;52.414;13.226;2023-02-13T00:17:06;13.70;;;4.75;;
64208;SDS011;50527;52.414;13.226;2023-02-13T00:19:31;10.75;;;4.03;;
64208;SDS011;50527;52.414;13.226;2023-02-13T00:21:57;11.43;;;3.72;;
64208;SDS011;50527;52.414;13.226;2023-02-13T00:24:23;8.98;;;2.78;;
64208;SDS011;50527;52.414;13.226;2023-02-13T00:26:48;12.30;;;3.72;;
64208;SDS011;50527;52.414;13.226;2023-02-13T00:29:14;9.10;;;2.72;;
64208;SDS011;50527;52.414;13.226;2023-02-13T00:31:39;9.80;;;2.65;;
64208;SDS011;50527;52.414;13.226;2023-02-13T00:34:04;8.75;;;2.58;;
64208;SDS011;50527;52.414;13.226;2023-02-13T00:36:30;8.77;;;2.33;;
64208;SDS011;50527;52.414;13.226;2023-02-13T00:38:55;6.10;;;2.13;;
64208;SDS011;50527;52.414;13.226;2023-02-13T00:41:21;6.72;;;2.20;;
64208;SDS011;50527;52.414;13.226;2023-02-13T00:43:47;5.97;;;1.65;;
64208;SDS011;50527;52.414;13.226;2023-02-13T00:46:14;5.63;;;1.35;;
64208;SDS011;50527;52.414;13.226;2023-02-13T00:48:40;8.20;;;1.38;;
64208;SDS011;50527;52.414;13.226;2023-02-13T00:51:06;3.45;;;1.08;;
64208;SDS011;50527;52.414;13.226;2023-02-13T00:53:33;4.68;;;1.20;;
64208;SDS011;50527;52.414;13.226;2023-02-13T00:55:59;5.25;;;1.40;;
64208;SDS011;50527;52.414;13.226;2023-02-13T00:58:25;2.78;;;1.00;;
64208;SDS011;50527;52.414;13.226;2023-02-13T01:00:51;4.18;;;1.20;;
64208;SDS011;50527;52.414;13.226;2023-02-13T01:03:18;3.55;;;0.98;;
64208;SDS011;50527;52.414;13.226;2023-02-13T01:05:44;4.10;;;1.10;;
64208;SDS011;50527;52.414;13.226;2023-02-13T01:08:10;3.10;;;0.90;;
64208;SDS011;50527;52.414;13.226;2023-02-13T01:10:37;2.78;;;0.85;;
64208;SDS011;50527;52.414;13.226;2023-02-13T01:13:04;2.58;;;0.77;;
64208;SDS011;50527;52.414;13.226;2023-02-13T01:15:31;4.28;;;1.08;;
64208;SDS011;50527;52.414;13.226;2023-02-13T01:17:57;2.60;;;0.80;;
64208;SDS011;50527;52.414;13.226;2023-02-13T01:20:24;2.40;;;0.93;;
64208;SDS011;50527;52.414;13.226;2023-02-13T01:22:51;3.80;;;0.80;;
64208;SDS011;50527;52.414;13.226;2023-02-13T01:25:16;2.97;;;1.00;;
64208;SDS011;50527;52.414;13.226;2023-02-13T01:27:42;3.50;;;1.00;;
64208;SDS011;50527;52.414;13.226;2023-02-13T01:30:08;4.57;;;1.23;;
64208;SDS011;50527;52.414;13.226;2023-02-13T01:32:38;3.15;;;0.73;;
64208;SDS011;50527;52.414;13.226;2023-02-13T01:35:04;3.70;;;1.00;;
64208;SDS011;50527;52.414;13.226;2023-02-13T01:37:29;2.95;;;0.98;;
64208;SDS011;50527;52.414;13.226;2023-02-13T01:39:55;2.95;;;1.38;;
64208;SDS011;50527;52.414;13.226;2023-02-13T01:42:23;2.33;;;0.90;;
64208;SDS011;50527;52.414;13.226;2023-02-13T01:48:02;2.83;;;0.70;;
64208;SDS011;50527;52.414;13.226;2023-02-13T01:50:16;2.95;;;0.88;;
64208;SDS011;50527;52.414;13.226;2023-02-13T01:52:48;3.00;;;0.88;;
64208;SDS011;50527;52.414;13.226;2023-02-13T01:55:21;4.50;;;0.90;;
64208;SDS011;50527;52.414;13.226;2023-02-13T01:57:50;2.17;;;0.85;;
64208;SDS011;50527;52.414;13.226;2023-02-13T02:00:22;6.97;;;0.80;;
64208;SDS011;50527;52.414;13.226;2023-02-13T02:02:50;2.45;;;0.80;;
64208;SDS011;50527;52.414;13.226;2023-02-13T02:05:27;3.53;;;0.82;;
64208;SDS011;50527;52.414;13.226;2023-02-13T02:07:56;4.60;;;0.85;;
64208;SDS011;50527;52.414;13.226;2023-02-13T02:10:24;8.05;;;0.80;;
64208;SDS011;50527;52.414;13.226;2023-02-13T02:13:32;2.92;;;0.70;;
64208;SDS011;50527;52.414;13.226;2023-02-13T02:15:42;2.85;;;0.80;;
64208;SDS011;50527;52.414;13.226;2023-02-13T02:27:10;3.92;;;1.10;;
64208;SDS011;50527;52.414;13.226;2023-02-13T02:33:17;3.60;;;1.42;;
64208;SDS011;50527;52.414;13.226;2023-02-13T02:39:06;3.45;;;1.30;;
64208;SDS011;50527;52.414;13.226;2023-02-13T02:44:17;3.70;;;1.52;;
64208;SDS011;50527;52.414;13.226;2023-02-13T02:47:01;5.10;;;1.55;;
64208;SDS011;50527;52.414;13.226;2023-02-13T02:49:54;3.92;;;1.52;;
64208;SDS011;50527;52.414;13.226;2023-02-13T02:53:14;5.47;;;1.73;;
64208;SDS011;50527;52.414;13.226;2023-02-13T02:55:30;5.85;;;2.28;;
64208;SDS011;50527;52.414;13.226;2023-02-13T02:58:05;5.90;;;1.73;;
64208;SDS011;50527;52.414;13.226;2023-02-13T03:00:55;8.70;;;2.45;;
64208;SDS011;50527;52.414;13.226;2023-02-13T03:03:41;6.63;;;1.80;;
64208;SDS011;50527;52.414;13.226;2023-02-13T03:06:28;7.88;;;1.95;;
64208;SDS011;50527;52.414;13.226;2023-02-13T03:09:01;4.93;;;1.88;;
64208;SDS011;50527;52.414;13.226;2023-02-13T03:11:49;6.07;;;1.67;;
64208;SDS011;50527;52.414;13.226;2023-02-13T03:14:36;6.65;;;1.95;;
64208;SDS011;50527;52.414;13.226;2023-02-13T03:17:02;5.47;;;2.05;;
64208;SDS011;50527;52.414;13.226;2023-02-13T03:25:28;6.45;;;2.00;;
64208;SDS011;50527;52.414;13.226;2023-02-13T03:28:10;5.55;;;2.10;;
64208;SDS011;50527;52.414;13.226;2023-02-13T03:36:23;7.85;;;2.35;;
64208;SDS011;50527;52.414;13.226;2023-02-13T03:39:22;6.43;;;2.30;;
64208;SDS011;50527;52.414;13.226;2023-02-13T03:42:17;7.60;;;2.60;;
64208;SDS011;50527;52.414;13.226;2023-02-13T03:45:04;5.03;;;2.20;;
64208;SDS011;50527;52.414;13.226;2023-02-13T03:47:55;8.25;;;2.22;;
64208;SDS011;50527;52.414;13.226;2023-02-13T03:50:22;5.18;;;2.45;;
64208;SDS011;50527;52.414;13.226;2023-02-13T03:52:54;7.65;;;2.40;;
64208;SDS011;50527;52.414;13.226;2023-02-13T03:55:29;6.85;;;2.28;;
64208;SDS011;50527;52.414;13.226;2023-02-13T03:58:19;5.00;;;2.30;;
64208;SDS011;50527;52.414;13.226;2023-02-13T04:01:07;8.02;;;2.33;;
64208;SDS011;50527;52.414;13.226;2023-02-13T04:06:21;6.57;;;2.15;;
64208;SDS011;50527;52.414;13.226;2023-02-13T04:08:51;5.30;;;2.00;;
64208;SDS011;50527;52.414;13.226;2023-02-13T04:11:21;6.95;;;2.20;;
64208;SDS011;50527;52.414;13.226;2023-02-13T04:14:15;5.20;;;2.13;;
64208;SDS011;50527;52.414;13.226;2023-02-13T04:16:46;6.28;;;1.98;;
64208;SDS011;50527;52.414;13.226;2023-02-13T04:19:16;6.30;;;2.28;;
64208;SDS011;50527;52.414;13.226;2023-02-13T04:21:42;7.28;;;2.20;;
64208;SDS011;50527;52.414;13.226;2023-02-13T04:24:08;7.20;;;2.13;;
64208;SDS011;50527;52.414;13.226;2023-02-13T04:26:35;5.10;;;1.85;;
64208;SDS011;50527;52.414;13.226;2023-02-13T04:29:06;3.47;;;1.50;;
64208;SDS011;50527;52.414;13.226;2023-02-13T04:31:32;3.97;;;1.75;;
64208;SDS011;50527;52.414;13.226;2023-02-13T04:33:58;5.03;;;1.88;;
64208;SDS011;50527;52.414;13.226;2023-02-13T04:36:24;5.65;;;1.65;;
64208;SDS011;50527;52.414;13.226;2023-02-13T04:38:49;4.53;;;1.45;;
64208;SDS011;50527;52.414;13.226;2023-02-13T04:41:15;5.75;;;1.77;;
64208;SDS011;50527;52.414;13.226;2023-02-13T04:43:40;3.55;;;1.50;;
64208;SDS011;50527;52.414;13.226;2023-02-13T04:46:06;3.50;;;1.60;;
64208;SDS011;50527;52.414;13.226;2023-02-13T04:48:32;5.57;;;1.50;;
64208;SDS011;50527;52.414;13.226;2023-02-13T04:50:57;3.25;;;1.45;;
64208;SDS011;50527;52.414;13.226;2023-02-13T04:53:23;4.15;;;1.42;;
64208;SDS011;50527;52.414;13.226;2023-02-13T04:55:48;5.18;;;1.50;;
64208;SDS011;50527;52.414;13.226;2023-02-13T04:58:14;5.53;;;1.70;;
64208;SDS011;50527;52.414;13.226;2023-02-13T05:00:39;4.28;;;1.15;;
64208;SDS011;50527;52.414;13.226;2023-02-13T05:03:11;3.50;;;1.30;;
64208;SDS011;50527;52.414;13.226;2023-02-13T05:05:38;5.68;;;1.20;;
64208;SDS011;50527;52.414;13.226;2023-02-13T05:08:04;2.75;;;0.90;;
64208;SDS011;50527;52.414;13.226;2023-02-13T05:10:31;5.07;;;1.05;;
64208;SDS011;50527;52.414;13.226;2023-02-13T05:12:57;3.35;;;1.00;;
64208;SDS011;50527;52.414;13.226;2023-02-13T05:15:22;3.28;;;0.98;;
64208;SDS011;50527;52.414;13.226;2023-02-13T05:17:48;3.22;;;1.30;;
64208;SDS011;50527;52.414;13.226;2023-02-13T05:20:14;3.05;;;0.95;;
64208;SDS011;50527;52.414;13.226;2023-02-13T05:22:43;3.55;;;0.90;;
64208;SDS011;50527;52.414;13.226;2023-02-13T05:25:33;2.40;;;1.00;;
64208;SDS011;50527;52.414;13.226;2023-02-13T05:28:00;3.45;;;0.93;;
64208;SDS011;50527;52.414;13.226;2023-02-13T05:30:25;3.25;;;1.20;;
64208;SDS011;50527;52.414;13.226;2023-02-13T05:32:51;3.45;;;1.15;;
64208;SDS011;50527;52.414;13.226;2023-02-13T05:35:17;2.78;;;1.27;;
64208;SDS011;50527;52.414;13.226;2023-02-13T05:37:43;5.35;;;1.42;;
64208;SDS011;50527;52.414;13.226;2023-02-13T05:40:09;5.38;;;1.10;;
64208;SDS011;50527;52.414;13.226;2023-02-13T05:42:35;4.28;;;1.38;;
64208;SDS011;50527;52.414;13.226;2023-02-13T05:45:01;3.55;;;1.60;;
64208;SDS011;50527;52.414;13.226;2023-02-13T05:47:27;3.85;;;1.33;;
64208;SDS011;50527;52.414;13.226;2023-02-13T05:49:52;2.72;;;1.13;;
64208;SDS011;50527;52.414;13.226;2023-02-13T05:52:17;5.18;;;1.60;;
64208;SDS011;50527;52.414;13.226;2023-02-13T05:54:43;3.92;;;1.60;;
64208;SDS011;50527;52.414;13.226;2023-02-13T05:57:08;3.40;;;1.27;;
64208;SDS011;50527;52.414;13.226;2023-02-13T05:59:34;4.22;;;1.10;;
64208;SDS011;50527;52.414;13.226;2023-02-13T06:01:59;4.68;;;1.50;;
64208;SDS011;50527;52.414;13.226;2023-02-13T06:04:25;3.15;;;1.30;;
64208;SDS011;50527;52.414;13.226;2023-02-13T06:06:50;2.97;;;1.10;;
64208;SDS011;50527;52.414;13.226;2023-02-13T06:09:16;3.40;;;1.15;;
64208;SDS011;50527;52.414;13.226;2023-02-13T06:11:41;3.63;;;1.30;;
64208;SDS011;50527;52.414;13.226;2023-02-13T06:14:07;5.75;;;1.20;;
64208;SDS011;50527;52.414;13.226;2023-02-13T06:16:32;3.97;;;1.35;;
64208;SDS011;50527;52.414;13.226;2023-02-13T06:18:58;4.63;;;1.40;;
64208;SDS011;50527;52.414;13.226;2023-02-13T06:21:24;5.65;;;1.38;;
64208;SDS011;50527;52.414;13.226;2023-02-13T06:23:50;3.55;;;1.35;;
64208;SDS011;50527;52.414;13.226;2023-02-13T06:26:15;2.90;;;1.10;;
64208;SDS011;50527;52.414;13.226;2023-02-13T06:28:41;5.18;;;1.17;;
64208;SDS011;50527;52.414;13.226;2023-02-13T06:31:06;4.30;;;1.38;;
64208;SDS011;50527;52.414;13.226;2023-02-13T06:33:32;3.47;;;1.40;;
64208;SDS011;50527;52.414;13.226;2023-02-13T06:35:57;3.25;;;1.35;;
64208;SDS011;50527;52.414;13.226;2023-02-13T06:38:23;6.13;;;1.67;;
64208;SDS011;50527;52.414;13.226;2023-02-13T06:40:49;4.28;;;1.35;;
64208;SDS011;50527;52.414;13.226;2023-02-13T06:43:15;4.88;;;1.35;;
64208;SDS011;50527;52.414;13.226;2023-02-13T06:45:41;3.78;;;1.27;;
64208;SDS011;50527;52.414;13.226;2023-02-13T06:48:08;3.47;;;1.40;;
64208;SDS011;50527;52.414;13.226;2023-02-13T06:50:34;3.65;;;1.55;;
64208;SDS011;50527;52.414;13.226;2023-02-13T06:52:59;3.30;;;1.38;;
64208;SDS011;50527;52.414;13.226;2023-02-13T06:55:26;5.90;;;1.80;;
64208;SDS011;50527;52.414;13.226;2023-02-13T06:57:51;4.53;;;1.90;;
64208;SDS011;50527;52.414;13.226;2023-02-13T07:00:17;5.68;;;2.10;;
64208;SDS011;50527;52.414;13.226;2023-02-13T07:02:44;6.82;;;2.28;;
64208;SDS011;50527;52.414;13.226;2023-02-13T07:05:11;8.02;;;2.33;;
64208;SDS011;50527;52.414;13.226;2023-02-13T07:07:38;5.63;;;2.15;;
64208;SDS011;50527;52.414;13.226;2023-02-13T07:10:06;7.03;;;2.15;;
64208;SDS011;50527;52.414;13.226;2023-02-13T07:12:33;7.85;;;1.88;;
64208;SDS011;50527;52.414;13.226;2023-02-13T07:15:00;7.60;;;2.20;;
64208;SDS011;50527;52.414;13.226;2023-02-13T07:17:26;6.97;;;2.33;;
64208;SDS011;50527;52.414;13.226;2023-02-13T07:19:51;5.20;;;2.10;;
64208;SDS011;50527;52.414;13.226;2023-02-13T07:22:17;6.13;;;1.90;;
64208;SDS011;50527;52.414;13.226;2023-02-13T07:24:43;6.07;;;2.25;;
64208;SDS011;50527;52.414;13.226;2023-02-13T07:27:08;6.43;;;2.10;;
64208;SDS011;50527;52.414;13.226;2023-02-13T07:29:34;6.63;;;2.47;;
64208;SDS011;50527;52.414;13.226;2023-02-13T07:31:59;7.13;;;2.53;;
64208;SDS011;50527;52.414;13.226;2023-02-13T07:34:25;7.15;;;2.70;;
64208;SDS011;50527;52.414;13.226;2023-02-13T07:36:50;7.93;;;2.65;;
64208;SDS011;50527;52.414;13.226;2023-02-13T07:39:16;6.35;;;2.60;;
64208;SDS011;50527;52.414;13.226;2023-02-13T07:41:42;5.88;;;2.17;;
64208;SDS011;50527;52.414;13.226;2023-02-13T07:44:07;5.95;;;2.30;;
64208;SDS011;50527;52.414;13.226;2023-02-13T07:46:33;6.25;;;2.13;;
64208;SDS011;50527;52.414;13.226;2023-02-13T07:48:58;6.57;;;2.40;;
64208;SDS011;50527;52.414;13.226;2023-02-13T07:51:23;5.90;;;2.65;;
64208;SDS011;50527;52.414;13.226;2023-02-13T07:53:50;5.57;;;2.22;;
64208;SDS011;50527;52.414;13.226;2023-02-13T07:56:16;7.07;;;1.95;;
64208;SDS011;50527;52.414;13.226;2023-02-13T07:58:42;6.00;;;1.92;;
64208;SDS011;50527;52.414;13.226;2023-02-13T08:01:09;10.35;;;2.38;;
64208;SDS011;50527;52.414;13.226;2023-02-13T08:03:36;6.97;;;2.60;;
64208;SDS011;50527;52.414;13.226;2023-02-13T08:06:02;5.78;;;2.17;;
64208;SDS011;50527;52.414;13.226;2023-02-13T08:08:29;12.10;;;2.40;;
64208;SDS011;50527;52.414;13.226;2023-02-13T08:10:54;6.00;;;2.20;;
64208;SDS011;50527;52.414;13.226;2023-02-13T08:13:39;6.30;;;2.28;;
64208;SDS011;50527;52.414;13.226;2023-02-13T08:16:06;4.78;;;2.00;;
64208;SDS011;50527;52.414;13.226;2023-02-13T08:18:31;5.97;;;1.75;;
64208;SDS011;50527;52.414;13.226;2023-02-13T08:20:57;4.70;;;1.90;;
64208;SDS011;50527;52.414;13.226;2023-02-13T08:23:22;5.38;;;2.00;;
64208;SDS011;50527;52.414;13.226;2023-02-13T08:25:47;5.15;;;2.05;;
64208;SDS011;50527;52.414;13.226;2023-02-13T08:28:14;5.63;;;2.17;;
64208;SDS011;50527;52.414;13.226;2023-02-13T08:30:40;4.93;;;1.85;;
64208;SDS011;50527;52.414;13.226;2023-02-13T08:33:06;4.68;;;2.05;;
64208;SDS011;50527;52.414;13.226;2023-02-13T08:35:31;5.68;;;1.92;;
64208;SDS011;50527;52.414;13.226;2023-02-13T08:38:01;5.32;;;2.00;;
64208;SDS011;50527;52.414;13.226;2023-02-13T08:40:27;6.38;;;1.75;;
64208;SDS011;50527;52.414;13.226;2023-02-13T08:42:57;4.47;;;1.90;;
64208;SDS011;50527;52.414;13.226;2023-02-13T08:45:25;6.90;;;2.10;;
64208;SDS011;50527;52.414;13.226;2023-02-13T08:47:50;6.60;;;2.00;;
64208;SDS011;50527;52.414;13.226;2023-02-13T08:50:19;3.47;;;1.48;;
64208;SDS011;50527;52.414;13.226;2023-02-13T08:52:44;6.43;;;1.95;;
64208;SDS011;50527;52.414;13.226;2023-02-13T08:55:10;5.68;;;1.83;;
64208;SDS011;50527;52.414;13.226;2023-02-13T08:57:35;4.65;;;1.63;;
64208;SDS011;50527;52.414;13.226;2023-02-13T09:00:01;6.38;;;2.30;;
64208;SDS011;50527;52.414;13.226;2023-02-13T09:02:26;5.30;;;1.70;;
64208;SDS011;50527;52.414;13.226;2023-02-13T09:04:52;6.57;;;1.90;;
64208;SDS011;50527;52.414;13.226;2023-02-13T09:07:17;6.13;;;1.88;;
64208;SDS011;50527;52.414;13.226;2023-02-13T09:09:43;5.15;;;1.88;;
64208;SDS011;50527;52.414;13.226;2023-02-13T09:12:08;8.45;;;2.15;;
64208;SDS011;50527;52.414;13.226;2023-02-13T09:14:33;7.20;;;2.10;;
64208;SDS011;50527;52.414;13.226;2023-02-13T09:16:59;6.25;;;2.03;;
64208;SDS011;50527;52.414;13.226;2023-02-13T09:19:24;7.00;;;2.33;;
64208;SDS011;50527;52.414;13.226;2023-02-13T09:21:50;8.38;;;2.20;;
64208;SDS011;50527;52.414;13.226;2023-02-13T09:24:15;4.90;;;1.98;;
64208;SDS011;50527;52.414;13.226;2023-02-13T09:26:41;5.65;;;2.17;;
64208;SDS011;50527;52.414;13.226;2023-02-13T09:29:06;6.82;;;2.20;;
64208;SDS011;50527;52.414;13.226;2023-02-13T09:31:32;5.93;;;1.95;;
64208;SDS011;50527;52.414;13.226;2023-02-13T09:33:57;7.07;;;2.05;;
64208;SDS011;50527;52.414;13.226;2023-02-13T09:36:23;8.55;;;1.92;;
64208;SDS011;50527;52.414;13.226;2023-02-13T09:38:52;9.18;;;2.40;;
64208;SDS011;50527;52.414;13.226;2023-02-13T09:41:20;8.82;;;2.63;;
64208;SDS011;50527;52.414;13.226;2023-02-13T09:44:01;5.85;;;1.88;;
64208;SDS011;50527;52.414;13.226;2023-02-13T09:46:36;7.85;;;2.20;;
64208;SDS011;50527;52.414;13.226;2023-02-13T09:49:11;5.57;;;2.20;;
64208;SDS011;50527;52.414;13.226;2023-02-13T09:51:40;8.80;;;2.25;;
64208;SDS011;50527;52.414;13.226;2023-02-13T09:54:10;8.02;;;2.42;;
64208;SDS011;50527;52.414;13.226;2023-02-13T09:56:43;6.03;;;2.10;;
64208;SDS011;50527;52.414;13.226;2023-02-13T10:10:57;7.15;;;2.30;;
64208;SDS011;50527;52.414;13.226;2023-02-13T10:13:40;7.72;;;2.00;;
64208;SDS011;50527;52.414;13.226;2023-02-13T10:16:26;7.55;;;2.38;;
64208;SDS011;50527;52.414;13.226;2023-02-13T10:19:12;7.85;;;2.58;;
64208;SDS011;50527;52.414;13.226;2023-02-13T10:22:29;7.50;;;2.28;;
64208;SDS011;50527;52.414;13.226;2023-02-13T10:25:24;6.53;;;2.30;;
64208;SDS011;50527;52.414;13.226;2023-02-13T10:27:44;7.22;;;2.13;;
64208;SDS011;50527;52.414;13.226;2023-02-13T10:30:20;6.95;;;2.13;;
64208;SDS011;50527;52.414;13.226;2023-02-13T10:32:55;6.03;;;1.90;;
64208;SDS011;50527;52.414;13.226;2023-02-13T10:35:35;7.80;;;1.92;;
64208;SDS011;50527;52.414;13.226;2023-02-13T10:38:03;6.13;;;2.28;;
64208;SDS011;50527;52.414;13.226;2023-02-13T10:40:39;7.25;;;1.88;;
64208;SDS011;50527;52.414;13.226;2023-02-13T10:43:18;6.20;;;2.28;;
64208;SDS011;50527;52.414;13.226;2023-02-13T10:45:55;6.88;;;1.65;;
64208;SDS011;50527;52.414;13.226;2023-02-13T10:48:46;5.78;;;2.00;;
64208;SDS011;50527;52.414;13.226;2023-02-13T10:51:29;7.22;;;2.30;;
64208;SDS011;50527;52.414;13.226;2023-02-13T10:54:16;6.38;;;1.90;;
64208;SDS011;50527;52.414;13.226;2023-02-13T10:57:03;6.93;;;2.08;;
64208;SDS011;50527;52.414;13.226;2023-02-13T11:02:37;7.22;;;1.98;;
64208;SDS011;50527;52.414;13.226;2023-02-13T11:05:20;6.82;;;2.00;;
64208;SDS011;50527;52.414;13.226;2023-02-13T11:07:48;8.85;;;2.20;;
64208;SDS011;50527;52.414;13.226;2023-02-13T11:12:42;7.25;;;2.63;;
64208;SDS011;50527;52.414;13.226;2023-02-13T11:15:09;7.38;;;1.92;;
64208;SDS011;50527;52.414;13.226;2023-02-13T11:17:50;6.78;;;2.03;;
64208;SDS011;50527;52.414;13.226;2023-02-13T11:20:27;6.65;;;1.95;;
64208;SDS011;50527;52.414;13.226;2023-02-13T11:23:12;7.30;;;2.13;;
64208;SDS011;50527;52.414;13.226;2023-02-13T11:25:59;6.60;;;2.45;;
64208;SDS011;50527;52.414;13.226;2023-02-13T11:28:32;7.75;;;2.53;;
64208;SDS011;50527;52.414;13.226;2023-02-13T11:33:46;8.07;;;2.55;;
64208;SDS011;50527;52.414;13.226;2023-02-13T11:36:16;9.88;;;2.53;;
64208;SDS011;50527;52.414;13.226;2023-02-13T11:39:17;6.13;;;2.55;;
64208;SDS011;50527;52.414;13.226;2023-02-13T11:41:45;6.30;;;2.35;;
64208;SDS011;50527;52.414;13.226;2023-02-13T11:44:24;6.55;;;2.20;;
64208;SDS011;50527;52.414;13.226;2023-02-13T11:46:52;7.10;;;2.28;;
64208;SDS011;50527;52.414;13.226;2023-02-13T11:49:20;6.43;;;2.45;;
64208;SDS011;50527;52.414;13.226;2023-02-13T11:51:54;7.05;;;2.40;;
64208;SDS011;50527;52.414;13.226;2023-02-13T11:57:17;6.47;;;2.38;;
64208;SDS011;50527;52.414;13.226;2023-02-13T11:59:52;6.82;;;2.72;;
64208;SDS011;50527;52.414;13.226;2023-02-13T12:02:22;5.55;;;2.25;;
64208;SDS011;50527;52.414;13.226;2023-02-13T12:04:50;5.40;;;2.13;;
64208;SDS011;50527;52.414;13.226;2023-02-13T12:07:30;8.40;;;2.22;;
64208;SDS011;50527;52.414;13.226;2023-02-13T12:15:18;6.47;;;2.50;;
64208;SDS011;50527;52.414;13.226;2023-02-13T12:28:57;9.57;;;2.40;;
64208;SDS011;50527;52.414;13.226;2023-02-13T12:31:41;6.18;;;2.47;;
64208;SDS011;50527;52.414;13.226;2023-02-13T12:34:31;7.10;;;2.28;;
64208;SDS011;50527;52.414;13.226;2023-02-13T12:37:35;6.43;;;2.63;;
64208;SDS011;50527;52.414;13.226;2023-02-13T12:46:17;6.97;;;2.85;;
64208;SDS011;50527;52.414;13.226;2023-02-13T12:49:03;9.45;;;3.30;;
64208;SDS011;50527;52.414;13.226;2023-02-13T12:51:56;9.38;;;2.75;;
64208;SDS011;50527;52.414;13.226;2023-02-13T12:54:57;8.73;;;2.95;;
64208;SDS011;50527;52.414;13.226;2023-02-13T12:57:32;7.78;;;2.63;;
64208;SDS011;50527;52.414;13.226;2023-02-13T13:00:10;6.68;;;2.88;;
64208;SDS011;50527;52.414;13.226;2023-02-13T13:02:57;7.18;;;3.03;;
64208;SDS011;50527;52.414;13.226;2023-02-13T13:05:48;8.02;;;3.30;;
64208;SDS011;50527;52.414;13.226;2023-02-13T13:16:33;9.65;;;3.20;;
64208;SDS011;50527;52.414;13.226;2023-02-13T13:19:26;8.13;;;3.40;;
64208;SDS011;50527;52.414;13.226;2023-02-13T13:22:01;8.38;;;3.20;;
64208;SDS011;50527;52.414;13.226;2023-02-13T13:27:21;12.70;;;3.30;;
64208;SDS011;50527;52.414;13.226;2023-02-13T13:29:55;8.93;;;2.90;;
64208;SDS011;50527;52.414;13.226;2023-02-13T13:32:23;13.07;;;2.97;;
64208;SDS011;50527;52.414;13.226;2023-02-13T13:34:51;8.23;;;2.95;;
64208;SDS011;50527;52.414;13.226;2023-02-13T13:37:42;8.05;;;3.13;;
64208;SDS011;50527;52.414;13.226;2023-02-13T13:40:32;8.55;;;3.20;;
64208;SDS011;50527;52.414;13.226;2023-02-13T13:43:11;8.50;;;3.47;;
64208;SDS011;50527;52.414;13.226;2023-02-13T13:46:02;8.48;;;3.25;;
64208;SDS011;50527;52.414;13.226;2023-02-13T13:51:17;8.52;;;3.08;;
64208;SDS011;50527;52.414;13.226;2023-02-13T13:59:17;9.23;;;2.60;;
64208;SDS011;50527;52.414;13.226;2023-02-13T14:04:42;6.90;;;2.80;;
64208;SDS011;50527;52.414;13.226;2023-02-13T14:07:41;10.38;;;2.90;;
64208;SDS011;50527;52.414;13.226;2023-02-13T14:20:42;6.75;;;2.67;;
64208;SDS011;50527;52.414;13.226;2023-02-13T14:28:41;8.15;;;3.10;;
64208;SDS011;50527;52.414;13.226;2023-02-13T14:36:42;8.32;;;2.85;;
64208;SDS011;50527;52.414;13.226;2023-02-13T14:44:21;9.55;;;2.97;;
64208;SDS011;50527;52.414;13.226;2023-02-13T14:46:48;6.07;;;2.50;;
64208;SDS011;50527;52.414;13.226;2023-02-13T14:49:19;7.60;;;2.95;;
64208;SDS011;50527;52.414;13.226;2023-02-13T14:51:56;8.10;;;3.08;;
64208;SDS011;50527;52.414;13.226;2023-02-13T14:57:22;8.82;;;2.97;;
64208;SDS011;50527;52.414;13.226;2023-02-13T14:59:54;8.60;;;2.78;;
64208;SDS011;50527;52.414;13.226;2023-02-13T15:02:23;8.43;;;3.58;;
64208;SDS011;50527;52.414;13.226;2023-02-13T15:05:09;8.80;;;3.30;;
64208;SDS011;50527;52.414;13.226;2023-02-13T15:13:52;6.80;;;2.55;;
64208;SDS011;50527;52.414;13.226;2023-02-13T15:16:18;6.75;;;2.63;;
64208;SDS011;50527;52.414;13.226;2023-02-13T15:18:44;9.93;;;3.00;;
64208;SDS011;50527;52.414;13.226;2023-02-13T15:21:20;6.93;;;2.60;;
64208;SDS011;50527;52.414;13.226;2023-02-13T15:23:48;9.07;;;2.97;;
64208;SDS011;50527;52.414;13.226;2023-02-13T15:26:18;10.57;;;2.95;;
64208;SDS011;50527;52.414;13.226;2023-02-13T15:28:57;9.70;;;2.67;;
64208;SDS011;50527;52.414;13.226;2023-02-13T15:31:28;7.88;;;2.67;;
64208;SDS011;50527;52.414;13.226;2023-02-13T15:33:57;10.50;;;2.45;;
64208;SDS011;50527;52.414;13.226;2023-02-13T15:36:24;9.55;;;2.85;;
64208;SDS011;50527;52.414;13.226;2023-02-13T15:38:58;8.45;;;3.17;;
64208;SDS011;50527;52.414;13.226;2023-02-13T15:41:25;7.53;;;3.00;;
64208;SDS011;50527;52.414;13.226;2023-02-13T15:43:57;8.57;;;2.88;;
64208;SDS011;50527;52.414;13.226;2023-02-13T15:46:25;8.93;;;2.75;;
64208;SDS011;50527;52.414;13.226;2023-02-13T15:48:59;9.05;;;3.08;;
64208;SDS011;50527;52.414;13.226;2023-02-13T15:51:29;8.02;;;2.83;;
64208;SDS011;50527;52.414;13.226;2023-02-13T15:53:59;8.15;;;2.53;;
64208;SDS011;50527;52.414;13.226;2023-02-13T15:56:26;7.70;;;2.50;;
64208;SDS011;50527;52.414;13.226;2023-02-13T15:58:52;13.77;;;3.08;;
64208;SDS011;50527;52.414;13.226;2023-02-13T16:01:19;9.70;;;3.47;;
64208;SDS011;50527;52.414;13.226;2023-02-13T16:03:46;9.50;;;3.25;;
64208;SDS011;50527;52.414;13.226;2023-02-13T16:06:14;10.07;;;3.53;;
64208;SDS011;50527;52.414;13.226;2023-02-13T16:08:47;8.25;;;2.92;;
64208;SDS011;50527;52.414;13.226;2023-02-13T16:11:17;11.07;;;3.00;;
64208;SDS011;50527;52.414;13.226;2023-02-13T16:13:52;7.80;;;2.75;;
64208;SDS011;50527;52.414;13.226;2023-02-13T16:16:25;11.23;;;3.30;;
64208;SDS011;50527;52.414;13.226;2023-02-13T16:18:52;11.80;;;3.20;;
64208;SDS011;50527;52.414;13.226;2023-02-13T16:21:25;6.95;;;2.78;;
64208;SDS011;50527;52.414;13.226;2023-02-13T16:24:02;12.73;;;3.42;;
64208;SDS011;50527;52.414;13.226;2023-02-13T16:26:30;8.00;;;2.70;;
64208;SDS011;50527;52.414;13.226;2023-02-13T16:28:56;16.25;;;3.55;;
64208;SDS011;50527;52.414;13.226;2023-02-13T16:31:22;8.25;;;2.90;;
64208;SDS011;50527;52.414;13.226;2023-02-13T16:33:48;8.43;;;2.78;;
64208;SDS011;50527;52.414;13.226;2023-02-13T16:38:39;8.80;;;2.53;;
64208;SDS011;50527;52.414;13.226;2023-02-13T16:43:54;7.20;;;2.67;;
64208;SDS011;50527;52.414;13.226;2023-02-13T16:46:31;7.00;;;2.38;;
64208;SDS011;50527;52.414;13.226;2023-02-13T16:51:45;7.80;;;2.72;;
64208;SDS011;50527;52.414;13.226;2023-02-13T16:54:32;8.02;;;2.63;;
64208;SDS011;50527;52.414;13.226;2023-02-13T16:59:47;7.35;;;2.75;;
64208;SDS011;50527;52.414;13.226;2023-02-13T17:02:24;8.57;;;2.70;;
64208;SDS011;50527;52.414;13.226;2023-02-13T17:04:52;8.48;;;2.80;;
64208;SDS011;50527;52.414;13.226;2023-02-13T17:07:26;7.00;;;2.75;;
64208;SDS011;50527;52.414;13.226;2023-02-13T17:09:59;8.10;;;3.00;;
64208;SDS011;50527;52.414;13.226;2023-02-13T17:12:27;10.13;;;3.47;;
64208;SDS011;50527;52.414;13.226;2023-02-13T17:14:54;9.50;;;3.75;;
64208;SDS011;50527;52.414;13.226;2023-02-13T17:17:22;10.02;;;3.78;;
64208;SDS011;50527;52.414;13.226;2023-02-13T17:19:49;10.45;;;3.63;;
64208;SDS011;50527;52.414;13.226;2023-02-13T17:22:24;9.77;;;3.80;;
64208;SDS011;50527;52.414;13.226;2023-02-13T17:24:54;13.15;;;3.25;;